Time,TemperatureF,DewpointF,PressureIn,WindDirection,WindDirectionDegrees,WindSpeedMPH,WindSpeedGustMPH,Humidity,HourlyPrecipIn,Conditions,Clouds,dailyrainin,SoftwareType,DateUTC
2013-10-09 00:14:00,-999.0,-99.9,29.99,NE,34,6.0,11.0,-999,-99.99,,,-99.99,,2013-10-09 04:14:00,
2013-10-09 00:44:00,-999.0,-99.9,29.99,NNE,24,7.0,9.0,-999,-99.99,,,-99.99,,2013-10-09 04:44:00,
2013-10-09 00:54:00,76.0,-99.9,29.99,North,-999,-999.0,-999.0,-999,-99.99,,,-99.99,,2013-10-09 04:54:00,
2013-10-09 01:04:00,-999.0,-99.9,29.99,NE,39,6.0,11.0,-999,-99.99,,,-99.99,,2013-10-09 05:04:00,
2013-10-09 01:13:00,-999.0,-99.9,29.99,NE,50,7.0,11.0,-999,-99.99,,,-99.99,,2013-10-09 05:13:00,
2013-10-09 02:12:00,-999.0,-99.9,29.99,NE,54,8.0,14.0,-999,-99.99,,,-99.99,,2013-10-09 06:12:00,
2013-10-09 02:42:00,-999.0,-99.9,29.99,ENE,62,8.0,12.0,-999,-99.99,,,-99.99,,2013-10-09 06:42:00,
2013-10-09 03:02:00,-999.0,-99.9,29.99,NNE,23,10.0,14.0,-999,-99.99,,,-99.99,,2013-10-09 07:02:00,
2013-10-09 03:22:00,-999.0,-99.9,29.99,ENE,57,9.0,13.0,-999,-99.99,,,-99.99,,2013-10-09 07:22:00,
2013-10-09 03:32:00,-999.0,-99.9,29.99,NE,52,8.0,15.0,-999,-99.99,,,-99.99,,2013-10-09 07:32:00,
2013-10-09 03:42:00,-999.0,-99.9,29.99,NE,51,8.0,14.0,-999,-99.99,,,-99.99,,2013-10-09 07:42:00,
2013-10-09 03:52:00,-999.0,-99.9,29.99,NE,55,12.0,16.0,-999,-99.99,,,-99.99,,2013-10-09 07:52:00,
2013-10-09 04:12:00,-999.0,-99.9,29.99,NE,50,8.0,14.0,-999,-99.99,,,-99.99,,2013-10-09 08:12:00,
2013-10-09 04:23:00,-999.0,-99.9,29.98,NE,52,7.0,13.0,-999,-99.99,,,-99.99,,2013-10-09 08:23:00,
2013-10-09 04:42:00,-999.0,-99.9,29.98,NNE,18,9.0,12.0,-999,-99.99,,,-99.99,,2013-10-09 08:42:00,
2013-10-09 05:02:00,-999.0,-99.9,29.98,NNE,27,9.0,12.0,-999,-99.99,,,-99.99,,2013-10-09 09:02:00,
2013-10-09 05:11:00,-999.0,-99.9,29.98,NNE,31,7.0,12.0,-999,-99.99,,,-99.99,,2013-10-09 09:11:00,
2013-10-09 05:22:00,75.0,-99.9,29.99,North,-999,-999.0,-999.0,-999,-99.99,,,-99.99,,2013-10-09 09:22:00,
2013-10-09 05:33:00,-999.0,-99.9,29.99,NE,48,5.0,9.0,-999,-99.99,,,-99.99,,2013-10-09 09:33:00,
2013-10-09 06:13:00,-999.0,-99.9,29.99,NE,42,7.0,13.0,-999,-99.99,,,-99.99,,2013-10-09 10:13:00,
2013-10-09 06:43:00,-999.0,-99.9,30.00,NNE,26,7.0,11.0,-999,-99.99,,,-99.99,,2013-10-09 10:43:00,
2013-10-09 07:02:00,-999.0,-99.9,30.01,NE,43,7.0,11.0,-999,-99.99,,,-99.99,,2013-10-09 11:02:00,
2013-10-09 07:12:00,-999.0,-99.9,30.01,NE,36,6.0,11.0,-999,-99.99,,,-99.99,,2013-10-09 11:12:00,
2013-10-09 07:22:00,-999.0,-99.9,30.01,NE,37,5.0,10.0,-999,-99.99,,,-99.99,,2013-10-09 11:22:00,
2013-10-09 07:33:00,-999.0,-99.9,30.02,NE,44,5.0,10.0,-999,-99.99,,,-99.99,,2013-10-09 11:33:00,
2013-10-09 07:42:00,-999.0,-99.9,30.02,NNE,31,5.0,11.0,-999,-99.99,,,-99.99,,2013-10-09 11:42:00,
2013-10-09 07:52:00,-999.0,-99.9,30.02,NNE,20,8.0,11.0,-999,-99.99,,,-99.99,,2013-10-09 11:52:00,
2013-10-09 08:01:00,-999.0,-99.9,30.02,NE,34,7.0,11.0,-999,-99.99,,,-99.99,,2013-10-09 12:01:00,
2013-10-09 08:12:00,-999.0,-99.9,30.03,ENE,57,10.0,14.0,-999,-99.99,,,-99.99,,2013-10-09 12:12:00,
2013-10-09 09:02:00,-999.0,-99.9,30.04,NE,44,7.0,13.0,-999,-99.99,,,-99.99,,2013-10-09 13:02:00,
2013-10-09 09:22:00,-999.0,-99.9,30.05,NNE,29,6.0,10.0,-999,-99.99,,,-99.99,,2013-10-09 13:22:00,
2013-10-09 09:33:00,-999.0,-99.9,30.05,NNE,21,7.0,9.0,-999,-99.99,,,-99.99,,2013-10-09 13:33:00,
2013-10-09 09:42:00,-999.0,-99.9,30.05,NE,47,4.0,8.0,-999,-99.99,,,-99.99,,2013-10-09 13:42:00,
2013-10-09 09:52:00,-999.0,-99.9,30.06,NE,43,4.0,6.0,-999,-99.99,,,-99.99,,2013-10-09 13:52:00,
2013-10-09 10:11:00,-999.0,-99.9,30.06,NNE,20,6.0,9.0,-999,-99.99,,,-99.99,,2013-10-09 14:11:00,
2013-10-09 10:22:00,-999.0,-99.9,30.07,NNE,21,7.0,10.0,-999,-99.99,,,-99.99,,2013-10-09 14:22:00,
2013-10-09 10:32:00,-999.0,-99.9,30.07,NNE,13,6.0,9.0,-999,-99.99,,,-99.99,,2013-10-09 14:32:00,
2013-10-09 11:12:00,-999.0,-99.9,30.07,NNE,20,6.0,11.0,-999,-99.99,,,-99.99,,2013-10-09 15:12:00,
2013-10-09 11:33:00,-999.0,-99.9,30.07,NE,37,6.0,8.0,-999,-99.99,,,-99.99,,2013-10-09 15:33:00,
2013-10-09 11:43:00,-999.0,-99.9,30.07,NE,43,5.0,9.0,-999,-99.99,,,-99.99,,2013-10-09 15:43:00,
2013-10-09 12:43:00,-999.0,-99.9,30.08,ENE,74,6.0,10.0,-999,-99.99,,,-99.99,,2013-10-09 16:43:00,
2013-10-09 12:53:00,-999.0,-99.9,30.08,ENE,72,5.0,8.0,-999,-99.99,,,-99.99,,2013-10-09 16:53:00,
2013-10-09 13:13:00,-999.0,-99.9,30.07,NE,48,5.0,9.0,-999,-99.99,,,-99.99,,2013-10-09 17:13:00,
2013-10-09 13:23:00,-999.0,-99.9,30.07,NNE,15,4.0,7.0,-999,-99.99,,,-99.99,,2013-10-09 17:23:00,
2013-10-09 13:52:00,-999.0,-99.9,30.06,NNE,23,5.0,8.0,-999,-99.99,,,-99.99,,2013-10-09 17:52:00,
2013-10-09 14:12:00,-999.0,-99.9,30.06,NNE,29,5.0,7.0,-999,-99.99,,,-99.99,,2013-10-09 18:12:00,
2013-10-09 14:22:00,-999.0,-99.9,30.05,NE,49,4.0,7.0,-999,-99.99,,,-99.99,,2013-10-09 18:22:00,
2013-10-09 14:42:00,-999.0,-99.9,30.04,NNE,26,5.0,7.0,-999,-99.99,,,-99.99,,2013-10-09 18:42:00,
2013-10-09 14:52:00,76.0,-99.9,30.04,North,-999,-999.0,-999.0,-999,-99.99,,,-99.99,,2013-10-09 18:52:00,
2013-10-09 15:32:00,-999.0,-99.9,30.03,NNE,22,4.0,6.0,-999,-99.99,,,-99.99,,2013-10-09 19:32:00,
2013-10-09 15:42:00,-999.0,-99.9,30.03,NNE,17,3.0,5.0,-999,-99.99,,,-99.99,,2013-10-09 19:42:00,
2013-10-09 15:53:00,-999.0,-99.9,30.03,NE,55,4.0,8.0,-999,-99.99,,,-99.99,,2013-10-09 19:53:00,
2013-10-09 16:02:00,-999.0,-99.9,30.03,NNE,24,3.0,6.0,-999,-99.99,,,-99.99,,2013-10-09 20:02:00,
2013-10-09 16:22:00,77.0,-99.9,30.03,North,-999,-999.0,-999.0,-999,-99.99,,,-99.99,,2013-10-09 20:22:00,
2013-10-09 16:52:00,-999.0,-99.9,30.02,NNE,12,6.0,10.0,-999,-99.99,,,-99.99,,2013-10-09 20:52:00,
2013-10-09 17:12:00,-999.0,-99.9,30.02,NNE,18,7.0,11.0,-999,-99.99,,,-99.99,,2013-10-09 21:12:00,
2013-10-09 17:34:00,-999.0,-99.9,30.02,NNE,12,6.0,10.0,-999,-99.99,,,-99.99,,2013-10-09 21:34:00,
2013-10-09 17:44:00,-999.0,-99.9,30.02,NNE,14,6.0,9.0,-999,-99.99,,,-99.99,,2013-10-09 21:44:00,
2013-10-09 17:54:00,-999.0,-99.9,30.02,NNE,20,5.0,8.0,-999,-99.99,,,-99.99,,2013-10-09 21:54:00,
2013-10-09 18:13:00,-999.0,-99.9,30.02,NNE,16,4.0,6.0,-999,-99.99,,,-99.99,,2013-10-09 22:13:00,
2013-10-09 18:53:00,-999.0,-99.9,30.02,North,355,5.0,7.0,-999,-99.99,,,-99.99,,2013-10-09 22:53:00,
2013-10-09 19:03:00,-999.0,-99.9,30.02,NNW,346,4.0,6.0,-999,-99.99,,,-99.99,,2013-10-09 23:03:00,
2013-10-09 19:34:00,-999.0,-99.9,30.02,North,356,5.0,7.0,-999,-99.99,,,-99.99,,2013-10-09 23:34:00,
2013-10-09 19:53:00,-999.0,-99.9,30.02,North,359,4.0,6.0,-999,-99.99,,,-99.99,,2013-10-09 23:53:00,
2013-10-09 20:12:00,-999.0,-99.9,30.02,North,358,4.0,7.0,-999,-99.99,,,-99.99,,2013-10-10 00:12:00,
2013-10-09 20:32:00,-999.0,-99.9,30.02,North,352,3.0,5.0,-999,-99.99,,,-99.99,,2013-10-10 00:32:00,
2013-10-09 21:02:00,-999.0,-99.9,30.03,NNE,24,9.0,13.0,-999,-99.99,,,-99.99,,2013-10-10 01:02:00,
2013-10-09 21:22:00,-999.0,-99.9,30.03,NE,46,7.0,13.0,-999,-99.99,,,-99.99,,2013-10-10 01:22:00,
2013-10-09 21:32:00,-999.0,-99.9,30.04,NE,47,7.0,16.0,-999,-99.99,,,-99.99,,2013-10-10 01:32:00,
2013-10-09 21:42:00,-999.0,-99.9,30.04,NE,50,10.0,16.0,-999,-99.99,,,-99.99,,2013-10-10 01:42:00,
2013-10-09 21:52:00,-999.0,-99.9,30.05,NE,48,9.0,15.0,-999,-99.99,,,-99.99,,2013-10-10 01:52:00,
2013-10-09 22:12:00,-999.0,-99.9,30.05,NNE,32,10.0,14.0,-999,-99.99,,,-99.99,,2013-10-10 02:12:00,
2013-10-09 22:22:00,-999.0,-99.9,30.06,NNE,24,11.0,15.0,-999,-99.99,,,-99.99,,2013-10-10 02:22:00,
2013-10-09 22:33:00,-999.0,-99.9,30.06,NNE,23,10.0,15.0,-999,-99.99,,,-99.99,,2013-10-10 02:33:00,
2013-10-09 22:42:00,-999.0,-99.9,30.06,NNE,23,10.0,15.0,-999,-99.99,,,-99.99,,2013-10-10 02:42:00,
2013-10-09 22:52:00,-999.0,-99.9,30.07,NE,53,8.0,12.0,-999,-99.99,,,-99.99,,2013-10-10 02:52:00,
2013-10-09 23:12:00,-999.0,-99.9,30.07,NNE,28,9.0,12.0,-999,-99.99,,,-99.99,,2013-10-10 03:12:00,
2013-10-09 23:22:00,-999.0,-99.9,30.07,NE,40,8.0,13.0,-999,-99.99,,,-99.99,,2013-10-10 03:22:00,
2013-10-09 23:34:00,-999.0,-99.9,30.07,NNE,33,7.0,12.0,-999,-99.99,,,-99.99,,2013-10-10 03:34:00,
2013-10-09 23:55:00,-999.0,-99.9,30.08,NE,42,8.0,13.0,-999,-99.99,,,-99.99,,2013-10-10 03:55:00,